Time;durP1;ratioP1;P1;durP2;ratioP2;P2;SDS_P1;SDS_P2;PMS_P1;PMS_P2;Temp;Humidity;BMP_temperature;BMP_pressure;BME280_temperature;BME280_humidity;BME280_pressure;Samples;Min_cycle;Max_cycle;Signal;HPM_P1;HPM_P2
2022/09/28 00:00:17;;;;;;;5.20;3.03;;;7.70;99.90;;;;;;4250296;27;20050;-84
2022/09/28 00:02:18;;;;;;;3.92;2.45;;;7.70;99.90;;;;;;4249626;27;20036;-84
2022/09/28 00:04:19;;;;;;;4.88;2.63;;;7.80;99.90;;;;;;4231509;28;20039;-84
2022/09/28 00:06:23;;;;;;;6.20;3.38;;;7.70;99.90;;;;;;4249512;27;20055;-84
2022/09/28 00:08:24;;;;;;;8.05;3.20;;;7.80;99.90;;;;;;4249702;27;20043;-83
2022/09/28 00:10:24;;;;;;;6.40;3.08;;;7.70;99.90;;;;;;4249265;27;20695;-83
2022/09/28 00:12:25;;;;;;;6.60;3.08;;;7.70;99.90;;;;;;4249406;27;20155;-84
2022/09/28 00:14:26;;;;;;;6.38;2.85;;;7.80;99.90;;;;;;4232032;28;20051;-84
2022/09/28 00:16:31;;;;;;;7.32;3.17;;;6.60;99.90;;;;;;4250199;27;20047;-84
2022/09/28 00:18:32;;;;;;;5.95;2.95;;;7.80;99.90;;;;;;4250004;27;20043;-84
2022/09/28 00:20:34;;;;;;;5.22;2.95;;;7.80;99.90;;;;;;4249990;27;20053;-84
2022/09/28 00:22:35;;;;;;;4.78;2.80;;;7.80;99.90;;;;;;4230778;28;20052;-84
2022/09/28 00:24:36;;;;;;;8.35;3.63;;;7.80;99.90;;;;;;4249825;27;20057;-84
2022/09/28 00:26:50;;;;;;;7.53;4.22;;;7.80;99.90;;;;;;4231161;28;20446;-84
2022/09/28 00:28:55;;;;;;;8.60;3.55;;;7.80;99.90;;;;;;4249865;27;20043;-84
2022/09/28 00:30:56;;;;;;;8.35;3.65;;;7.80;99.90;;;;;;4249751;27;20514;-84
2022/09/28 00:32:57;;;;;;;7.75;3.58;;;7.90;99.90;;;;;;4231386;28;20052;-84
2022/09/28 00:34:57;;;;;;;7.88;3.97;;;7.80;99.90;;;;;;4249105;27;20046;-84
2022/09/28 00:36:59;;;;;;;8.23;4.03;;;7.80;99.90;;;;;;4249621;27;20126;-84
2022/09/28 00:39:06;;;;;;;6.00;3.63;;;7.80;99.90;;;;;;4249317;27;20550;-84
2022/09/28 00:41:10;;;;;;;5.72;3.80;;;7.90;99.90;;;;;;4249745;27;20054;-84
2022/09/28 00:43:18;;;;;;;10.25;3.50;;;7.80;99.90;;;;;;4249874;27;20457;-84
2022/09/28 00:45:18;;;;;;;7.00;3.83;;;7.80;99.90;;;;;;4249659;27;20039;-84
2022/09/28 00:47:40;;;;;;;7.65;3.95;;;8.00;99.90;;;;;;4249309;27;20047;-84
2022/09/28 00:49:53;;;;;;;6.70;3.60;;;7.80;99.90;;;;;;4213858;28;20138;-84
2022/09/28 00:51:54;;;;;;;6.40;3.53;;;7.80;99.90;;;;;;4231957;28;20047;-83
2022/09/28 00:53:56;;;;;;;10.98;3.95;;;7.80;99.90;;;;;;4232351;28;20399;-83
2022/09/28 00:56:11;;;;;;;6.57;3.33;;;7.90;99.90;;;;;;4230984;28;20055;-84
2022/09/28 00:58:17;;;;;;;7.22;3.05;;;7.30;99.90;;;;;;4232591;28;20043;-84
2022/09/28 01:00:18;;;;;;;4.97;3.00;;;7.70;99.90;;;;;;4232205;28;20517;-84
2022/09/28 01:02:19;;;;;;;6.22;3.38;;;7.60;99.90;;;;;;4232441;28;20122;-84
2022/09/28 01:04:21;;;;;;;6.00;2.78;;;7.60;99.90;;;;;;4231081;28;20047;-84
2022/09/28 01:06:26;;;;;;;8.80;3.65;;;7.60;99.90;;;;;;4232421;28;20040;-84
2022/09/28 01:08:29;;;;;;;7.95;3.92;;;7.50;99.90;;;;;;4231163;28;20043;-84
2022/09/28 01:10:32;;;;;;;7.82;3.88;;;7.50;99.90;;;;;;4232434;28;20403;-84
2022/09/28 01:12:33;;;;;;;7.55;4.25;;;7.50;99.90;;;;;;4232060;28;20058;-84
2022/09/28 01:14:33;;;;;;;8.35;4.35;;;7.50;99.90;;;;;;4231975;28;20043;-82
2022/09/28 01:16:55;;;;;;;9.30;4.15;;;7.50;99.90;;;;;;4230769;28;20054;-83
2022/09/28 01:19:17;;;;;;;8.90;4.97;;;7.50;99.90;;;;;;4234302;28;20114;-83
2022/09/28 01:21:21;;;;;;;10.00;4.20;;;7.50;99.90;;;;;;4232891;28;20079;-85
2022/09/28 01:23:43;;;;;;;7.15;4.22;;;7.50;99.90;;;;;;4232468;28;20132;-85
2022/09/28 01:26:02;;;;;;;6.78;3.78;;;7.50;99.90;;;;;;4233344;28;20610;-83
2022/09/28 01:28:10;;;;;;;;;;;7.50;99.90;;;;;;4234727;28;20365;-83
2022/09/28 01:30:15;;;;;;;7.68;4.55;;;7.50;99.90;;;;;;4233785;28;19920;-83
2022/09/28 01:32:54;;;;;;;11.40;4.72;;;7.40;99.90;;;;;;4233242;28;20143;-83
2022/09/28 01:35:13;;;;;;;7.13;4.18;;;7.40;99.90;;;;;;4231661;28;20050;-82
2022/09/28 01:37:18;;;;;;;7.63;4.25;;;7.40;99.90;;;;;;4232134;28;20039;-82
2022/09/28 01:39:30;;;;;;;9.88;4.53;;;7.40;99.90;;;;;;4231829;28;20047;-82
2022/09/28 01:41:36;;;;;;;8.90;4.10;;;7.30;99.90;;;;;;4230263;28;20079;-82
2022/09/28 01:43:41;;;;;;;9.02;4.53;;;7.40;99.90;;;;;;4231802;28;20487;-82
2022/09/28 01:46:03;;;;;;;8.73;4.25;;;7.20;99.90;;;;;;4232710;28;20555;-83
2022/09/28 01:48:07;;;;;;;10.50;4.00;;;7.20;99.90;;;;;;4232651;28;20050;-82
2022/09/28 01:50:18;;;;;;;7.72;4.47;;;7.20;99.90;;;;;;4239675;27;20058;-83
2022/09/28 01:52:22;;;;;;;7.88;3.92;;;7.20;99.90;;;;;;4249861;27;20119;-83
2022/09/28 01:54:35;;;;;;;7.20;3.50;;;7.20;99.90;;;;;;4250156;27;20039;-83
2022/09/28 01:56:53;;;;;;;7.75;3.60;;;7.10;99.90;;;;;;4249341;27;20122;-83
2022/09/28 01:59:01;;;;;;;7.18;4.10;;;7.40;99.90;;;;;;4249555;27;20035;-83
2022/09/28 02:01:14;;;;;;;7.75;3.70;;;7.10;99.90;;;;;;4249025;27;20047;-82
2022/09/28 02:03:19;;;;;;;7.13;4.38;;;7.10;99.90;;;;;;4231185;28;20130;-82
2022/09/28 02:05:32;;;;;;;7.93;4.15;;;7.10;99.90;;;;;;4231461;28;20047;-82
2022/09/28 02:08:01;;;;;;;8.02;3.72;;;7.10;99.90;;;;;;4249732;27;20086;-82
2022/09/28 02:10:11;;;;;;;8.10;4.45;;;7.40;99.90;;;;;;4231593;28;20052;-82
2022/09/28 02:12:40;;;;;;;9.98;4.70;;;7.00;99.90;;;;;;4249770;27;20046;-82
2022/09/28 02:14:44;;;;;;;8.35;3.85;;;7.00;99.90;;;;;;4249283;27;20091;-82
2022/09/28 02:16:48;;;;;;;8.05;4.78;;;7.00;99.90;;;;;;4248798;27;20134;-81
2022/09/28 02:18:50;;;;;;;9.27;4.38;;;7.00;99.90;;;;;;4228780;28;20047;-83
2022/09/28 02:20:59;;;;;;;9.63;4.78;;;7.10;99.90;;;;;;4246998;27;20494;-82
2022/09/28 02:23:03;;;;;;;8.68;4.53;;;7.20;99.90;;;;;;4248050;27;20059;-83
2022/09/28 02:25:28;;;;;;;8.00;4.28;;;7.20;99.90;;;;;;4229616;28;20088;-83
2022/09/28 02:27:53;;;;;;;13.98;6.05;;;7.20;99.90;;;;;;4247592;27;20084;-83
2022/09/28 02:29:54;;;;;;;7.53;4.65;;;7.20;99.90;;;;;;4248236;27;20051;-87
2022/09/28 02:31:55;;;;;;;8.82;5.40;;;7.20;99.90;;;;;;4247951;27;20080;-83
2022/09/28 02:33:56;;;;;;;10.07;4.53;;;7.50;99.90;;;;;;4248069;27;20039;-83
2022/09/28 02:35:59;;;;;;;9.38;5.15;;;7.40;99.90;;;;;;4230345;28;20100;-83
2022/09/28 02:38:00;;;;;;;7.85;4.70;;;7.20;99.90;;;;;;4248177;27;20414;-83
2022/09/28 02:40:02;;;;;;;11.60;5.28;;;7.20;99.90;;;;;;4230556;28;20039;-82
2022/09/28 02:42:48;;;;;;;7.07;4.60;;;7.20;99.90;;;;;;4230292;28;20420;-83
2022/09/28 02:45:09;;;;;;;10.32;4.72;;;7.20;99.90;;;;;;4191558;27;20058;-83
2022/09/28 02:47:43;;;;;;;10.52;5.85;;;7.20;99.90;;;;;;4248384;27;20134;-83
2022/09/28 02:49:59;;;;;;;10.63;4.93;;;7.20;99.90;;;;;;4248073;27;20087;-83
2022/09/28 02:52:29;;;;;;;8.70;4.80;;;7.40;99.90;;;;;;4247885;28;20467;-83
2022/09/28 02:55:02;;;;;;;10.23;4.90;;;7.20;99.90;;;;;;4248399;28;20053;-82
2022/09/28 02:57:17;;;;;;;6.95;4.10;;;7.20;99.90;;;;;;4230333;28;20044;-83
2022/09/28 02:59:49;;;;;;;9.27;4.90;;;7.20;99.90;;;;;;4230201;28;20502;-83
2022/09/28 03:02:22;;;;;;;10.52;4.82;;;7.20;99.90;;;;;;4249154;27;20411;-83
2022/09/28 03:04:36;;;;;;;10.35;5.28;;;7.10;99.90;;;;;;4233080;28;20043;-83
2022/09/28 03:07:08;;;;;;;10.02;5.20;;;7.20;99.90;;;;;;4251898;27;20070;-83
2022/09/28 03:09:17;;;;;;;13.27;5.28;;;7.10;99.90;;;;;;4213725;28;20054;-83
2022/09/28 03:11:42;;;;;;;12.82;6.15;;;7.20;99.90;;;;;;4252095;27;20043;-83
2022/09/28 03:13:44;;;;;;;9.93;5.60;;;7.10;99.90;;;;;;4235699;27;20047;-84
2022/09/28 03:15:45;;;;;;;12.48;5.65;;;7.10;99.90;;;;;;4251759;27;20479;-84
2022/09/28 03:17:48;;;;;;;10.75;4.85;;;7.10;99.90;;;;;;4251755;27;20043;-83
2022/09/28 03:19:48;;;;;;;14.20;5.30;;;7.10;99.90;;;;;;4251725;27;20614;-83
2022/09/28 03:21:49;;;;;;;8.38;4.55;;;7.10;99.90;;;;;;4251560;27;20039;-83
2022/09/28 03:23:50;;;;;;;10.70;4.88;;;7.00;99.90;;;;;;4251192;27;20043;-83
2022/09/28 03:25:51;;;;;;;9.27;4.20;;;7.00;99.90;;;;;;4251529;27;20043;-83
2022/09/28 03:27:52;;;;;;;11.40;5.13;;;7.00;99.90;;;;;;4251150;27;20039;-83
2022/09/28 03:29:53;;;;;;;11.35;5.18;;;7.00;99.90;;;;;;4251716;27;20039;-83
2022/09/28 03:31:54;;;;;;;8.38;4.28;;;7.00;99.90;;;;;;4251363;27;20050;-83
2022/09/28 03:33:54;;;;;;;9.57;4.25;;;6.90;99.90;;;;;;4251225;27;20107;-83
2022/09/28 03:35:55;;;;;;;7.20;3.72;;;6.90;99.90;;;;;;4250719;27;20066;-83
2022/09/28 03:37:56;;;;;;;7.78;4.13;;;6.80;99.90;;;;;;4233330;28;20087;-83
2022/09/28 03:39:57;;;;;;;8.82;4.32;;;6.80;99.90;;;;;;4251307;27;20047;-83
2022/09/28 03:41:59;;;;;;;10.13;4.00;;;6.80;99.90;;;;;;4251075;27;20546;-83
2022/09/28 03:44:00;;;;;;;9.77;4.53;;;6.80;99.90;;;;;;4251238;27;20487;-83
2022/09/28 03:46:01;;;;;;;7.68;3.85;;;6.70;99.90;;;;;;4251405;27;20043;-83
2022/09/28 03:48:02;;;;;;;6.40;3.47;;;6.90;99.90;;;;;;4251271;27;20114;-83
2022/09/28 03:50:03;;;;;;;7.10;3.85;;;6.70;99.90;;;;;;4250807;27;20051;-81
2022/09/28 03:52:04;;;;;;;12.07;3.92;;;6.60;99.90;;;;;;4251114;27;20510;-82
2022/09/28 03:54:04;;;;;;;7.07;3.83;;;6.60;99.90;;;;;;4250762;27;20039;-82
2022/09/28 03:56:08;;;;;;;6.85;3.78;;;6.60;99.90;;;;;;4251064;27;20114;-82
2022/09/28 03:58:08;;;;;;;9.45;4.10;;;6.50;99.90;;;;;;4251066;27;20039;-82
2022/09/28 04:00:10;;;;;;;17.20;4.15;;;6.50;99.90;;;;;;4250988;27;20035;-83
2022/09/28 04:02:10;;;;;;;26.35;4.40;;;6.50;99.90;;;;;;4199078;28;20457;-83
2022/09/28 04:04:12;;;;;;;69.28;5.38;;;7.00;99.90;;;;;;4215391;28;20040;-82
2022/09/28 04:06:13;;;;;;;151.40;8.10;;;6.50;99.90;;;;;;4215237;28;20059;-83
2022/09/28 04:08:15;;;;;;;83.20;6.30;;;6.50;99.90;;;;;;4250818;27;20058;-83
2022/09/28 04:10:16;;;;;;;75.28;6.07;;;6.60;99.90;;;;;;4250640;27;20146;-83
2022/09/28 04:12:17;;;;;;;96.88;7.03;;;6.70;99.90;;;;;;4232422;28;20058;-83
2022/09/28 04:14:17;;;;;;;25.20;4.95;;;7.30;99.90;;;;;;4250502;27;20043;-82
2022/09/28 04:16:18;;;;;;;90.57;6.95;;;6.40;99.90;;;;;;4231977;28;20392;-83
2022/09/28 04:18:20;;;;;;;121.70;7.57;;;6.50;99.90;;;;;;4232395;28;20372;-83
2022/09/28 04:20:20;;;;;;;92.18;7.35;;;6.90;99.90;;;;;;4250203;27;20043;-82
2022/09/28 04:22:22;;;;;;;97.55;7.70;;;6.70;99.90;;;;;;4250663;27;20054;-83
2022/09/28 04:24:23;;;;;;;87.07;7.05;;;6.50;99.90;;;;;;4250261;27;20039;-83
2022/09/28 04:26:26;;;;;;;85.28;7.70;;;6.50;99.90;;;;;;4249662;27;20043;-83
2022/09/28 04:30:46;;;;;;;110.43;7.30;;;7.10;99.90;;;;;;4231861;28;20501;-83
2022/09/28 04:32:48;;;;;;;35.85;5.70;;;6.50;99.90;;;;;;4231600;28;20047;-83
2022/09/28 04:34:50;;;;;;;52.95;6.65;;;6.50;99.90;;;;;;4231104;28;20066;-83
2022/09/28 04:36:51;;;;;;;96.93;7.03;;;6.50;99.90;;;;;;4249973;27;20047;-83
2022/09/28 04:38:52;;;;;;;29.98;5.90;;;6.50;99.90;;;;;;4250274;27;20047;-82
2022/09/28 04:40:52;;;;;;;65.03;7.00;;;6.50;99.90;;;;;;4249969;27;20043;-82
2022/09/28 04:42:55;;;;;;;55.15;6.15;;;6.50;99.90;;;;;;4249283;27;20043;-82
2022/09/28 04:44:57;;;;;;;36.72;5.70;;;6.50;99.90;;;;;;4248839;27;20084;-82
2022/09/28 04:46:58;;;;;;;32.15;5.75;;;6.80;99.90;;;;;;4249112;27;20047;-82
2022/09/28 04:48:58;;;;;;;19.48;5.82;;;6.50;99.90;;;;;;4248741;27;20049;-82
2022/09/28 04:50:59;;;;;;;57.95;6.88;;;6.80;99.90;;;;;;4248459;27;20047;-82
2022/09/28 04:53:00;;;;;;;31.80;5.10;;;6.70;99.90;;;;;;4248945;27;20051;-82
2022/09/28 04:55:01;;;;;;;44.78;5.85;;;7.00;99.90;;;;;;4248884;27;20039;-81
2022/09/28 04:57:03;;;;;;;33.63;6.60;;;6.60;99.90;;;;;;4248868;27;20047;-82
2022/09/28 04:59:04;;;;;;;27.10;5.70;;;6.60;99.90;;;;;;4249104;27;20047;-82
2022/09/28 05:01:09;;;;;;;44.22;6.53;;;6.60;99.90;;;;;;4249614;27;20540;-82
2022/09/28 05:03:10;;;;;;;21.80;5.07;;;6.60;99.90;;;;;;4231560;28;20036;-82
2022/09/28 05:05:11;;;;;;;39.50;5.78;;;6.70;99.90;;;;;;4249420;27;20481;-82
2022/09/28 05:07:12;;;;;;;33.45;5.93;;;6.50;99.90;;;;;;4230874;28;20130;-82
2022/09/28 05:09:14;;;;;;;29.73;5.82;;;6.60;99.90;;;;;;4231310;28;20040;-82
2022/09/28 05:11:14;;;;;;;14.05;5.82;;;6.60;99.90;;;;;;4232493;28;20043;-82
2022/09/28 05:13:17;;;;;;;33.35;5.93;;;6.50;99.90;;;;;;4231126;28;20439;-82
2022/09/28 05:15:18;;;;;;;47.97;6.10;;;6.60;99.90;;;;;;4249483;27;20493;-82
2022/09/28 05:17:18;;;;;;;67.75;7.13;;;6.60;99.90;;;;;;4248136;27;20043;-82
2022/09/28 05:19:19;;;;;;;82.88;7.95;;;6.90;99.90;;;;;;4230508;28;20082;-82
2022/09/28 05:21:20;;;;;;;88.07;7.80;;;6.60;99.90;;;;;;4249459;27;20091;-82
2022/09/28 05:23:22;;;;;;;76.53;7.43;;;6.60;99.90;;;;;;4231027;28;20400;-82
2022/09/28 05:25:23;;;;;;;8.35;5.15;;;6.50;99.90;;;;;;4248479;27;20115;-82
2022/09/28 05:27:24;;;;;;;37.28;6.20;;;6.60;99.90;;;;;;4248931;27;20643;-82
2022/09/28 05:29:26;;;;;;;24.17;6.32;;;6.60;99.90;;;;;;4248822;27;20043;-82
2022/09/28 05:31:27;;;;;;;55.95;6.63;;;6.90;99.90;;;;;;4248836;27;20051;-82
2022/09/28 05:33:28;;;;;;;47.03;6.03;;;6.60;99.90;;;;;;4248676;27;20665;-82
2022/09/28 05:35:29;;;;;;;22.50;6.40;;;6.90;99.90;;;;;;4248224;27;20100;-82
2022/09/28 05:37:30;;;;;;;15.98;6.00;;;6.60;99.90;;;;;;4213443;28;20048;-82
2022/09/28 05:39:31;;;;;;;17.48;6.07;;;6.60;99.90;;;;;;4248405;27;20050;-82
2022/09/28 05:41:31;;;;;;;35.10;6.10;;;6.60;99.90;;;;;;4230348;28;20411;-82
2022/09/28 05:43:32;;;;;;;62.47;6.82;;;6.60;99.90;;;;;;4248286;27;20103;-82
2022/09/28 05:45:33;;;;;;;16.25;5.97;;;6.60;99.90;;;;;;4213853;28;20091;-82
2022/09/28 05:47:38;;;;;;;10.88;5.18;;;6.60;99.90;;;;;;4248316;27;20100;-83
2022/09/28 05:49:39;;;;;;;8.68;4.57;;;6.60;99.90;;;;;;4247756;27;20051;-82
2022/09/28 05:51:40;;;;;;;9.43;4.90;;;6.60;99.90;;;;;;4212932;28;20412;-82
2022/09/28 05:53:40;;;;;;;11.48;6.15;;;6.60;99.90;;;;;;4230053;28;20043;-82
2022/09/28 05:55:42;;;;;;;9.07;5.35;;;6.50;99.90;;;;;;4213789;28;20065;-82
2022/09/28 05:57:42;;;;;;;11.18;5.57;;;6.60;99.90;;;;;;4248941;27;20121;-82
2022/09/28 05:59:43;;;;;;;9.85;5.18;;;6.50;99.90;;;;;;4249020;27;20050;-82
2022/09/28 06:01:44;;;;;;;12.15;5.20;;;6.90;99.90;;;;;;4230761;28;20484;-82
2022/09/28 06:03:44;;;;;;;9.77;5.55;;;6.50;99.90;;;;;;4214321;28;20044;-82
2022/09/28 06:05:46;;;;;;;10.25;4.72;;;6.60;99.90;;;;;;4213654;28;20128;-82
2022/09/28 06:07:46;;;;;;;9.57;5.07;;;6.50;99.90;;;;;;4248763;27;20047;-82
2022/09/28 06:09:47;;;;;;;11.38;4.55;;;6.50;99.90;;;;;;4213352;28;20546;-82
2022/09/28 06:11:49;;;;;;;11.43;5.35;;;6.50;99.90;;;;;;4230632;28;20036;-82
2022/09/28 06:13:55;;;;;;;9.45;5.07;;;6.50;99.90;;;;;;4230208;28;20112;-82
2022/09/28 06:15:56;;;;;;;9.70;5.15;;;6.50;99.90;;;;;;4230511;28;20051;-82
2022/09/28 06:17:57;;;;;;;9.10;5.07;;;6.50;99.90;;;;;;4230396;28;20511;-82
2022/09/28 06:19:58;;;;;;;12.25;5.60;;;6.50;99.90;;;;;;4248562;27;20043;-82
2022/09/28 06:21:59;;;;;;;10.23;5.72;;;6.60;99.90;;;;;;4214064;28;20048;-82
2022/09/28 06:24:00;;;;;;;9.68;5.05;;;6.50;99.90;;;;;;4248265;27;20134;-82
2022/09/28 06:26:00;;;;;;;11.98;6.03;;;6.60;99.90;;;;;;4230423;28;20052;-82
2022/09/28 06:28:04;;;;;;;9.45;5.07;;;6.80;99.90;;;;;;4230166;28;20108;-83
2022/09/28 06:30:06;;;;;;;10.07;5.25;;;6.60;99.90;;;;;;4230673;28;20047;-83
2022/09/28 06:32:07;;;;;;;11.88;5.82;;;6.60;99.90;;;;;;4230526;28;20043;-83
2022/09/28 06:34:10;;;;;;;8.93;5.35;;;6.60;99.90;;;;;;4248517;27;20036;-82
2022/09/28 06:36:11;;;;;;;13.23;5.68;;;6.70;99.90;;;;;;4248128;27;20082;-82
2022/09/28 06:38:12;;;;;;;15.30;6.28;;;6.80;99.90;;;;;;4229808;28;20495;-81
2022/09/28 06:40:13;;;;;;;10.55;5.63;;;6.70;99.90;;;;;;4248862;27;20035;-82
2022/09/28 06:42:17;;;;;;;11.18;5.50;;;6.70;99.90;;;;;;4248567;27;20087;-82
2022/09/28 06:44:19;;;;;;;12.70;6.00;;;6.80;99.90;;;;;;4230180;28;20047;-82
2022/09/28 06:46:20;;;;;;;11.63;5.68;;;6.90;99.90;;;;;;4248648;27;20096;-82
2022/09/28 06:48:20;;;;;;;13.32;6.03;;;6.90;99.90;;;;;;4247817;27;20047;-82
2022/09/28 06:50:23;;;;;;;12.65;6.28;;;6.90;99.90;;;;;;4248021;28;20070;-82
2022/09/28 06:52:24;;;;;;;11.35;5.95;;;7.00;99.90;;;;;;4230450;28;20517;-82
2022/09/28 06:54:25;;;;;;;11.77;5.70;;;7.00;99.90;;;;;;4248117;28;20050;-81
2022/09/28 06:56:26;;;;;;;18.52;7.20;;;7.00;99.90;;;;;;4230150;28;20477;-82
2022/09/28 06:58:31;;;;;;;16.17;6.15;;;7.10;99.90;;;;;;4247505;27;20051;-82
2022/09/28 07:00:34;;;;;;;15.82;6.80;;;7.30;99.90;;;;;;4212477;28;20043;-82
2022/09/28 07:02:35;;;;;;;17.00;6.80;;;7.20;99.90;;;;;;4246499;28;20163;-82
2022/09/28 07:04:35;;;;;;;13.75;6.30;;;7.20;99.90;;;;;;4212549;28;20053;-82
2022/09/28 07:06:37;;;;;;;11.70;6.20;;;7.30;99.90;;;;;;4246749;28;20047;-82
2022/09/28 07:08:38;;;;;;;17.27;7.38;;;7.30;99.90;;;;;;4212470;28;20131;-82
2022/09/28 07:10:44;;;;;;;11.07;6.30;;;7.40;99.90;;;;;;4247354;28;20096;-82
2022/09/28 07:12:46;;;;;;;13.00;6.35;;;7.40;99.90;;;;;;4229232;28;20051;-82
2022/09/28 07:14:48;;;;;;;11.70;6.05;;;7.70;99.90;;;;;;4247578;28;20118;-82
2022/09/28 07:16:49;;;;;;;13.00;6.18;;;7.50;99.90;;;;;;4247409;28;20082;-81
2022/09/28 07:18:50;;;;;;;12.02;6.55;;;7.50;99.90;;;;;;4248191;28;20075;-82
2022/09/28 07:20:51;;;;;;;12.55;6.45;;;7.60;99.90;;;;;;4247857;28;20139;-83
2022/09/28 07:22:56;;;;;;;12.80;6.32;;;7.60;99.90;;;;;;4212890;28;20040;-82
2022/09/28 07:24:57;;;;;;;14.88;5.88;;;7.70;99.90;;;;;;4212897;28;20048;-82
2022/09/28 07:26:58;;;;;;;11.38;6.05;;;7.90;99.90;;;;;;4247754;28;20433;-83
2022/09/28 07:28:59;;;;;;;11.20;5.05;;;7.80;99.90;;;;;;4247092;28;20031;-82
2022/09/28 07:31:02;;;;;;;15.93;6.32;;;7.90;99.90;;;;;;4228938;28;20040;-81
2022/09/28 07:33:07;;;;;;;14.93;7.03;;;8.00;99.90;;;;;;4242871;28;20062;-81
2022/09/28 07:35:08;;;;;;;12.85;5.85;;;8.10;99.90;;;;;;4248525;28;20479;-81
2022/09/28 07:37:12;;;;;;;14.02;6.43;;;8.10;99.90;;;;;;4264381;27;20095;-81
2022/09/28 07:39:12;;;;;;;14.70;7.30;;;8.20;99.90;;;;;;4212859;28;20054;-82
2022/09/28 07:41:20;;;;;;;10.45;6.10;;;8.70;99.90;;;;;;4247978;28;20104;-82
2022/09/28 07:43:21;;;;;;;13.75;5.40;;;9.80;99.90;;;;;;4247655;28;20487;-82
2022/09/28 07:45:23;;;;;;;8.32;4.57;;;10.80;99.90;;;;;;4230662;28;20453;-82
2022/09/28 07:47:27;;;;;;;8.45;3.75;;;11.70;99.90;;;;;;4248761;27;20562;-83
2022/09/28 07:49:29;;;;;;;8.82;4.47;;;12.40;99.90;;;;;;4251502;27;20051;-82
2022/09/28 07:51:30;;;;;;;5.70;3.67;;;13.20;99.90;;;;;;4233372;28;20059;-81
2022/09/28 07:53:31;;;;;;;7.95;4.00;;;13.70;99.90;;;;;;4234085;28;20039;-81
2022/09/28 07:55:31;;;;;;;5.90;3.10;;;14.10;99.90;;;;;;4216877;28;20103;-81
2022/09/28 07:57:32;;;;;;;4.60;3.28;;;14.40;99.90;;;;;;4234162;28;20043;-82
2022/09/28 07:59:33;;;;;;;7.18;3.58;;;14.90;99.90;;;;;;4266943;27;20051;-83
2022/09/28 08:01:33;;;;;;;5.97;3.33;;;15.30;99.90;;;;;;4233811;28;20044;-83
2022/09/28 08:03:35;;;;;;;6.80;2.97;;;15.60;99.90;;;;;;4215524;28;20063;-83
2022/09/28 08:05:37;;;;;;;3.92;2.70;;;16.00;99.90;;;;;;4215325;28;20083;-83
2022/09/28 08:07:38;;;;;;;5.68;2.85;;;16.10;99.90;;;;;;4233093;28;20074;-82
2022/09/28 08:09:39;;;;;;;7.93;3.05;;;16.40;99.90;;;;;;4231493;28;20052;-83
2022/09/28 08:11:42;;;;;;;3.95;2.83;;;16.70;99.90;;;;;;4266127;27;20435;-85
2022/09/28 08:13:45;;;;;;;4.93;2.58;;;16.80;99.90;;;;;;4234079;28;20126;-87
2022/09/28 08:15:49;;;;;;;3.47;2.08;;;17.00;99.90;;;;;;4234773;28;20067;-87
2022/09/28 08:17:50;;;;;;;5.38;2.42;;;17.30;99.80;;;;;;4234799;28;20495;-88
2022/09/28 08:22:11;;;;;;;3.28;2.08;;;17.70;99.20;;;;;;4232968;28;20435;-85
2022/09/28 08:24:14;;;;;;;5.82;2.70;;;18.10;98.60;;;;;;4233871;28;20043;-84
2022/09/28 08:26:15;;;;;;;4.82;2.58;;;18.10;98.40;;;;;;4233846;28;20051;-84
2022/09/28 08:28:16;;;;;;;3.15;1.90;;;18.10;98.40;;;;;;4233008;28;20051;-84
2022/09/28 08:30:18;;;;;;;4.15;2.15;;;18.20;98.50;;;;;;4214553;28;20055;-83
2022/09/28 08:32:20;;;;;;;2.72;2.05;;;18.40;98.60;;;;;;4232444;28;20093;-84
2022/09/28 08:34:21;;;;;;;3.92;2.28;;;18.60;98.80;;;;;;4231055;28;20036;-84
2022/09/28 08:36:22;;;;;;;5.55;2.30;;;18.70;98.50;;;;;;4232398;28;20100;-83
2022/09/28 08:38:28;;;;;;;3.25;2.30;;;18.90;98.00;;;;;;4232772;28;20079;-84
2022/09/28 08:40:41;;;;;;;5.32;1.60;;;19.10;97.90;;;;;;4233056;28;20514;-84
2022/09/28 08:42:43;;;;;;;3.90;2.00;;;19.30;97.20;;;;;;4214192;28;20048;-84
2022/09/28 08:44:52;;;;;;;3.28;2.17;;;19.50;96.90;;;;;;4231159;28;20094;-84
2022/09/28 08:46:58;;;;;;;3.72;2.20;;;19.90;96.90;;;;;;4232255;28;20043;-84
2022/09/28 08:49:24;;;;;;;3.72;2.10;;;20.10;96.60;;;;;;4231282;28;20047;-84
2022/09/28 08:51:41;;;;;;;4.90;2.53;;;20.60;94.10;;;;;;4246440;27;20448;-84
2022/09/28 08:53:48;;;;;;;3.50;2.38;;;20.80;95.00;;;;;;4249424;27;20047;-84
2022/09/28 08:55:49;;;;;;;3.55;2.10;;;21.00;94.70;;;;;;4266608;27;20043;-84
2022/09/28 08:58:04;;;;;;;3.05;2.22;;;21.00;94.60;;;;;;4249200;27;20095;-83
2022/09/28 09:00:05;;;;;;;5.10;2.05;;;20.90;94.00;;;;;;4249093;27;20047;-83
2022/09/28 09:02:16;;;;;;;4.32;2.30;;;20.90;95.00;;;;;;4231005;28;20055;-83
2022/09/28 09:04:17;;;;;;;2.80;2.10;;;21.00;93.70;;;;;;4248591;27;20100;-83
2022/09/28 09:06:30;;;;;;;4.32;2.58;;;21.10;94.30;;;;;;4248932;27;20214;-83
2022/09/28 09:08:45;;;;;;;5.43;2.50;;;21.20;93.50;;;;;;4249062;27;20050;-83
2022/09/28 09:10:53;;;;;;;5.18;2.53;;;21.00;93.40;;;;;;4249018;27;20054;-83
2022/09/28 09:13:00;;;;;;;2.55;2.10;;;21.10;93.20;;;;;;4248276;27;20082;-83
2022/09/28 09:15:19;;;;;;;4.70;2.28;;;21.40;92.70;;;;;;4264523;27;20045;-83
2022/09/28 09:17:19;;;;;;;;;;;21.70;90.40;;;;;;4249098;27;20053;-83
2022/09/28 09:19:26;;;;;;;3.50;1.80;;;22.00;90.00;;;;;;4248664;27;19986;-83
2022/09/28 09:21:40;;;;;;;5.68;2.30;;;22.20;91.90;;;;;;4230473;28;20048;-83
2022/09/28 09:23:54;;;;;;;3.10;2.10;;;22.30;86.00;;;;;;4248844;27;20118;-83
2022/09/28 09:26:02;;;;;;;2.63;1.92;;;22.10;91.30;;;;;;4248096;27;20043;-83
2022/09/28 09:28:06;;;;;;;4.22;1.98;;;22.10;90.60;;;;;;4248804;27;20043;-83
2022/09/28 09:30:11;;;;;;;4.03;2.28;;;21.70;90.70;;;;;;4248775;27;20043;-83
2022/09/28 09:32:32;;;;;;;4.82;2.70;;;21.50;90.70;;;;;;4248768;27;20499;-83
2022/09/28 09:34:39;;;;;;;3.13;2.28;;;21.00;89.60;;;;;;4230001;28;20050;-83
2022/09/28 09:36:57;;;;;;;4.57;2.90;;;20.80;90.50;;;;;;4248645;27;20062;-83
2022/09/28 09:39:17;;;;;;;3.42;2.53;;;20.80;90.70;;;;;;4248640;27;20533;-83
2022/09/28 09:41:55;;;;;;;4.55;2.70;;;20.90;90.70;;;;;;4248646;27;20479;-83
2022/09/28 09:44:25;;;;;;;6.93;3.20;;;20.80;89.70;;;;;;4248391;27;20126;-82
2022/09/28 09:46:41;;;;;;;6.47;2.40;;;20.70;88.90;;;;;;4247897;27;20049;-83
2022/09/28 09:49:07;;;;;;;3.42;2.30;;;20.70;89.40;;;;;;4248250;27;20047;-83
2022/09/28 09:51:25;;;;;;;3.63;2.65;;;20.60;90.10;;;;;;4248102;27;20055;-84
2022/09/28 09:53:37;;;;;;;3.60;2.20;;;20.40;89.50;;;;;;4247690;27;20039;-83
2022/09/28 09:55:46;;;;;;;5.47;2.03;;;19.80;91.30;;;;;;4248104;27;20042;-83
2022/09/28 09:58:05;;;;;;;2.38;1.98;;;19.80;91.00;;;;;;4229952;28;20126;-83
2022/09/28 10:00:12;;;;;;;;;;;19.40;90.40;;;;;;4230503;28;20116;-83
2022/09/28 10:02:28;;;;;;;3.10;1.10;;;18.70;88.40;;;;;;4247588;27;19926;-83
2022/09/28 10:04:35;;;;;;;5.07;1.10;;;18.30;91.00;;;;;;4230013;28;20538;-83
2022/09/28 10:06:37;;;;;;;1.73;0.60;;;17.90;92.10;;;;;;4230029;28;20432;-83
2022/09/28 10:08:47;;;;;;;3.17;0.90;;;17.50;92.30;;;;;;4229554;28;20051;-83
2022/09/28 10:10:49;;;;;;;1.08;0.68;;;17.30;92.40;;;;;;4229392;28;20117;-82
2022/09/28 10:12:50;;;;;;;1.45;1.00;;;17.30;92.50;;;;;;4247823;27;20050;-82
2022/09/28 10:14:54;;;;;;;0.40;0.40;;;17.30;92.60;;;;;;4248017;27;20108;-83
2022/09/28 10:16:56;;;;;;;1.08;0.60;;;17.30;92.50;;;;;;4229603;28;20582;-83
2022/09/28 10:18:58;;;;;;;3.47;1.20;;;17.30;92.60;;;;;;4247779;27;20056;-83
2022/09/28 10:20:58;;;;;;;1.67;0.90;;;17.30;92.30;;;;;;4247803;27;20043;-82
2022/09/28 10:23:03;;;;;;;1.05;0.75;;;17.20;92.00;;;;;;4247829;27;20049;-83
2022/09/28 10:25:07;;;;;;;0.75;0.70;;;17.20;91.80;;;;;;4229539;28;20503;-83
2022/09/28 10:27:14;;;;;;;1.77;0.95;;;17.00;91.50;;;;;;4247909;27;20047;-84
2022/09/28 10:29:19;;;;;;;1.13;0.90;;;16.80;90.90;;;;;;4247841;27;20529;-83
2022/09/28 10:31:40;;;;;;;2.90;0.90;;;16.60;91.30;;;;;;4229158;28;20040;-83
2022/09/28 10:33:41;;;;;;;2.42;0.82;;;16.70;90.80;;;;;;4247878;27;20047;-83
2022/09/28 10:35:42;;;;;;;3.40;1.45;;;16.60;91.60;;;;;;4247653;27;20039;-83
2022/09/28 10:37:54;;;;;;;4.43;0.88;;;16.70;91.70;;;;;;4229089;28;20430;-83
2022/09/28 10:39:55;;;;;;;1.95;0.52;;;16.70;91.20;;;;;;4247153;27;20494;-83
2022/09/28 10:41:58;;;;;;;2.30;0.40;;;16.50;91.20;;;;;;4247323;27;20154;-83
2022/09/28 10:44:05;;;;;;;1.50;0.30;;;16.50;91.50;;;;;;4246811;27;20049;-83
2022/09/28 10:46:07;;;;;;;1.55;0.38;;;16.30;91.10;;;;;;4229001;28;20047;-83
2022/09/28 10:48:21;;;;;;;1.95;0.47;;;16.20;91.10;;;;;;4229105;28;20055;-83
2022/09/28 10:50:26;;;;;;;4.13;0.20;;;16.20;90.90;;;;;;4229244;28;20457;-83
2022/09/28 10:52:40;;;;;;;2.10;0.15;;;16.10;90.70;;;;;;4229457;28;20109;-83
2022/09/28 10:54:52;;;;;;;1.48;0.43;;;16.00;90.60;;;;;;4263303;27;20486;-83
2022/09/28 10:56:54;;;;;;;0.35;0.10;;;16.40;90.40;;;;;;4230870;28;20138;-83
2022/09/28 10:58:56;;;;;;;5.00;0.70;;;17.10;91.10;;;;;;4230477;28;20540;-83
2022/09/28 11:01:04;;;;;;;0.80;0.20;;;18.00;91.00;;;;;;4230047;28;20218;-83